sensor_id;sensor_type;location;lat;lon;timestamp;temperature;humidity
32296;DHT22;18781;51.550;5.418;2023-06-10T00:01:24;25.90;43.80
32296;DHT22;18781;51.550;5.418;2023-06-10T00:03:50;25.80;43.80
32296;DHT22;18781;51.550;5.418;2023-06-10T00:06:17;25.80;43.80
32296;DHT22;18781;51.550;5.418;2023-06-10T00:08:43;25.80;43.80
32296;DHT22;18781;51.550;5.418;2023-06-10T00:11:08;25.70;43.80
32296;DHT22;18781;51.550;5.418;2023-06-10T00:13:34;25.70;44.40
32296;DHT22;18781;51.550;5.418;2023-06-10T00:16:00;25.70;43.90
32296;DHT22;18781;51.550;5.418;2023-06-10T00:18:25;25.70;44.00
32296;DHT22;18781;51.550;5.418;2023-06-10T00:20:52;25.70;44.10
32296;DHT22;18781;51.550;5.418;2023-06-10T00:23:21;25.60;44.00
32296;DHT22;18781;51.550;5.418;2023-06-10T00:25:47;25.60;44.00
32296;DHT22;18781;51.550;5.418;2023-06-10T00:28:12;25.60;44.10
32296;DHT22;18781;51.550;5.418;2023-06-10T00:30:38;25.50;44.20
32296;DHT22;18781;51.550;5.418;2023-06-10T00:33:04;25.50;44.10
32296;DHT22;18781;51.550;5.418;2023-06-10T00:35:30;25.50;44.20
32296;DHT22;18781;51.550;5.418;2023-06-10T00:37:56;25.50;44.30
32296;DHT22;18781;51.550;5.418;2023-06-10T00:40:21;25.40;44.40
32296;DHT22;18781;51.550;5.418;2023-06-10T00:42:47;25.40;44.40
32296;DHT22;18781;51.550;5.418;2023-06-10T00:45:12;25.30;44.40
32296;DHT22;18781;51.550;5.418;2023-06-10T00:47:39;25.30;44.50
32296;DHT22;18781;51.550;5.418;2023-06-10T00:50:06;25.30;44.50
32296;DHT22;18781;51.550;5.418;2023-06-10T00:52:33;25.20;44.50
32296;DHT22;18781;51.550;5.418;2023-06-10T00:55:00;25.20;44.70
32296;DHT22;18781;51.550;5.418;2023-06-10T00:57:26;25.20;44.70
32296;DHT22;18781;51.550;5.418;2023-06-10T00:59:52;25.10;44.70
32296;DHT22;18781;51.550;5.418;2023-06-10T01:02:17;25.10;44.80
32296;DHT22;18781;51.550;5.418;2023-06-10T01:04:43;25.00;44.80
32296;DHT22;18781;51.550;5.418;2023-06-10T01:07:25;25.00;44.90
32296;DHT22;18781;51.550;5.418;2023-06-10T01:10:17;25.00;45.00
32296;DHT22;18781;51.550;5.418;2023-06-10T01:13:02;24.90;45.00
32296;DHT22;18781;51.550;5.418;2023-06-10T01:15:32;24.90;44.90
32296;DHT22;18781;51.550;5.418;2023-06-10T01:18:00;24.80;45.20
32296;DHT22;18781;51.550;5.418;2023-06-10T01:20:28;24.70;45.30
32296;DHT22;18781;51.550;5.418;2023-06-10T01:22:56;24.70;45.30
32296;DHT22;18781;51.550;5.418;2023-06-10T01:25:23;24.70;45.50
32296;DHT22;18781;51.550;5.418;2023-06-10T01:28:00;24.60;45.60
32296;DHT22;18781;51.550;5.418;2023-06-10T01:30:29;24.60;45.70
32296;DHT22;18781;51.550;5.418;2023-06-10T01:32:57;24.50;45.60
32296;DHT22;18781;51.550;5.418;2023-06-10T01:35:25;24.50;45.70
32296;DHT22;18781;51.550;5.418;2023-06-10T01:37:54;24.50;45.80
32296;DHT22;18781;51.550;5.418;2023-06-10T01:40:23;24.50;45.80
32296;DHT22;18781;51.550;5.418;2023-06-10T01:42:49;24.40;45.90
32296;DHT22;18781;51.550;5.418;2023-06-10T01:45:15;24.40;46.00
32296;DHT22;18781;51.550;5.418;2023-06-10T01:47:40;24.30;46.00
32296;DHT22;18781;51.550;5.418;2023-06-10T01:50:06;24.30;46.10
32296;DHT22;18781;51.550;5.418;2023-06-10T01:52:32;24.20;46.20
32296;DHT22;18781;51.550;5.418;2023-06-10T01:54:58;24.20;46.30
32296;DHT22;18781;51.550;5.418;2023-06-10T01:57:23;24.10;46.30
32296;DHT22;18781;51.550;5.418;2023-06-10T01:59:49;24.10;46.60
32296;DHT22;18781;51.550;5.418;2023-06-10T02:02:15;24.00;46.70
32296;DHT22;18781;51.550;5.418;2023-06-10T02:04:41;24.00;46.70
32296;DHT22;18781;51.550;5.418;2023-06-10T02:07:06;24.00;46.70
32296;DHT22;18781;51.550;5.418;2023-06-10T02:09:32;23.90;46.90
32296;DHT22;18781;51.550;5.418;2023-06-10T02:12:01;23.90;47.10
32296;DHT22;18781;51.550;5.418;2023-06-10T02:14:27;23.80;47.10
32296;DHT22;18781;51.550;5.418;2023-06-10T02:16:52;23.80;47.30
32296;DHT22;18781;51.550;5.418;2023-06-10T02:19:22;23.80;47.40
32296;DHT22;18781;51.550;5.418;2023-06-10T02:21:47;23.70;47.40
32296;DHT22;18781;51.550;5.418;2023-06-10T02:24:13;23.60;47.60
32296;DHT22;18781;51.550;5.418;2023-06-10T02:26:39;23.60;48.30
32296;DHT22;18781;51.550;5.418;2023-06-10T02:29:05;23.60;47.80
32296;DHT22;18781;51.550;5.418;2023-06-10T02:31:31;23.60;48.00
32296;DHT22;18781;51.550;5.418;2023-06-10T02:33:56;23.50;48.30
32296;DHT22;18781;51.550;5.418;2023-06-10T02:36:22;23.50;48.30
32296;DHT22;18781;51.550;5.418;2023-06-10T02:38:49;23.40;48.70
32296;DHT22;18781;51.550;5.418;2023-06-10T02:41:15;23.40;48.70
32296;DHT22;18781;51.550;5.418;2023-06-10T02:43:40;23.30;48.70
32296;DHT22;18781;51.550;5.418;2023-06-10T02:46:06;23.30;48.80
32296;DHT22;18781;51.550;5.418;2023-06-10T02:48:41;23.30;49.00
32296;DHT22;18781;51.550;5.418;2023-06-10T02:51:07;23.20;49.00
32296;DHT22;18781;51.550;5.418;2023-06-10T02:53:33;23.20;49.20
32296;DHT22;18781;51.550;5.418;2023-06-10T02:55:58;23.20;49.30
32296;DHT22;18781;51.550;5.418;2023-06-10T02:58:24;23.10;49.60
32296;DHT22;18781;51.550;5.418;2023-06-10T03:00:49;23.10;49.70
32296;DHT22;18781;51.550;5.418;2023-06-10T03:03:15;23.00;49.80
32296;DHT22;18781;51.550;5.418;2023-06-10T03:05:41;23.00;50.00
32296;DHT22;18781;51.550;5.418;2023-06-10T03:08:07;23.00;50.10
32296;DHT22;18781;51.550;5.418;2023-06-10T03:10:32;22.90;50.20
32296;DHT22;18781;51.550;5.418;2023-06-10T03:12:58;22.90;50.20
32296;DHT22;18781;51.550;5.418;2023-06-10T03:15:24;22.90;50.40
32296;DHT22;18781;51.550;5.418;2023-06-10T03:17:49;22.90;50.50
32296;DHT22;18781;51.550;5.418;2023-06-10T03:20:15;22.80;50.60
32296;DHT22;18781;51.550;5.418;2023-06-10T03:22:42;22.80;50.60
32296;DHT22;18781;51.550;5.418;2023-06-10T03:25:08;22.80;50.70
32296;DHT22;18781;51.550;5.418;2023-06-10T03:27:39;22.80;50.90
32296;DHT22;18781;51.550;5.418;2023-06-10T03:30:06;22.70;50.80
32296;DHT22;18781;51.550;5.418;2023-06-10T03:32:31;22.70;50.90
32296;DHT22;18781;51.550;5.418;2023-06-10T03:34:57;22.60;51.10
32296;DHT22;18781;51.550;5.418;2023-06-10T03:37:24;22.60;51.30
32296;DHT22;18781;51.550;5.418;2023-06-10T03:39:49;22.60;51.50
32296;DHT22;18781;51.550;5.418;2023-06-10T03:42:15;22.60;51.60
32296;DHT22;18781;51.550;5.418;2023-06-10T03:44:41;22.50;51.40
32296;DHT22;18781;51.550;5.418;2023-06-10T03:47:06;22.50;51.60
32296;DHT22;18781;51.550;5.418;2023-06-10T03:49:32;22.50;51.60
32296;DHT22;18781;51.550;5.418;2023-06-10T03:51:58;22.50;51.60
32296;DHT22;18781;51.550;5.418;2023-06-10T03:54:24;22.40;51.70
32296;DHT22;18781;51.550;5.418;2023-06-10T03:56:50;22.50;52.10
32296;DHT22;18781;51.550;5.418;2023-06-10T03:59:18;22.40;52.00
32296;DHT22;18781;51.550;5.418;2023-06-10T04:01:44;22.40;52.10
32296;DHT22;18781;51.550;5.418;2023-06-10T04:04:13;22.40;52.30
32296;DHT22;18781;51.550;5.418;2023-06-10T04:06:39;22.40;52.20
32296;DHT22;18781;51.550;5.418;2023-06-10T04:09:04;22.30;52.30
32296;DHT22;18781;51.550;5.418;2023-06-10T04:11:31;22.30;52.60
32296;DHT22;18781;51.550;5.418;2023-06-10T04:13:58;22.30;52.50
32296;DHT22;18781;51.550;5.418;2023-06-10T04:16:23;22.30;52.70
32296;DHT22;18781;51.550;5.418;2023-06-10T04:18:49;22.20;52.70
32296;DHT22;18781;51.550;5.418;2023-06-10T04:21:14;22.20;52.70
32296;DHT22;18781;51.550;5.418;2023-06-10T04:23:40;22.30;52.90
32296;DHT22;18781;51.550;5.418;2023-06-10T04:26:07;22.20;52.80
32296;DHT22;18781;51.550;5.418;2023-06-10T04:28:33;22.20;53.10
32296;DHT22;18781;51.550;5.418;2023-06-10T04:30:58;22.20;53.10
32296;DHT22;18781;51.550;5.418;2023-06-10T04:33:24;22.20;53.00
32296;DHT22;18781;51.550;5.418;2023-06-10T04:35:50;22.20;53.00
32296;DHT22;18781;51.550;5.418;2023-06-10T04:38:16;22.20;53.10
32296;DHT22;18781;51.550;5.418;2023-06-10T04:40:41;22.20;53.10
32296;DHT22;18781;51.550;5.418;2023-06-10T04:43:07;22.20;53.20
32296;DHT22;18781;51.550;5.418;2023-06-10T04:45:33;22.20;53.10
32296;DHT22;18781;51.550;5.418;2023-06-10T04:47:58;22.20;53.20
32296;DHT22;18781;51.550;5.418;2023-06-10T04:50:24;22.20;53.30
32296;DHT22;18781;51.550;5.418;2023-06-10T04:52:50;22.20;53.20
32296;DHT22;18781;51.550;5.418;2023-06-10T04:55:16;22.20;53.30
32296;DHT22;18781;51.550;5.418;2023-06-10T04:57:41;22.20;53.30
32296;DHT22;18781;51.550;5.418;2023-06-10T05:00:07;22.20;53.40
32296;DHT22;18781;51.550;5.418;2023-06-10T05:02:33;22.20;53.50
32296;DHT22;18781;51.550;5.418;2023-06-10T05:04:59;22.20;53.40
32296;DHT22;18781;51.550;5.418;2023-06-10T05:07:25;22.20;53.40
32296;DHT22;18781;51.550;5.418;2023-06-10T05:09:51;22.20;53.50
32296;DHT22;18781;51.550;5.418;2023-06-10T05:12:17;22.20;53.50
32296;DHT22;18781;51.550;5.418;2023-06-10T05:14:42;22.20;53.50
32296;DHT22;18781;51.550;5.418;2023-06-10T05:17:08;22.20;53.60
32296;DHT22;18781;51.550;5.418;2023-06-10T05:19:33;22.30;53.40
32296;DHT22;18781;51.550;5.418;2023-06-10T05:22:01;22.30;53.50
32296;DHT22;18781;51.550;5.418;2023-06-10T05:24:27;22.30;53.60
32296;DHT22;18781;51.550;5.418;2023-06-10T05:26:53;22.30;53.50
32296;DHT22;18781;51.550;5.418;2023-06-10T05:29:19;22.40;53.40
32296;DHT22;18781;51.550;5.418;2023-06-10T05:31:45;22.40;53.50
32296;DHT22;18781;51.550;5.418;2023-06-10T05:34:10;22.40;53.40
32296;DHT22;18781;51.550;5.418;2023-06-10T05:36:36;22.40;53.60
32296;DHT22;18781;51.550;5.418;2023-06-10T05:39:02;22.50;53.60
32296;DHT22;18781;51.550;5.418;2023-06-10T05:41:28;22.50;53.60
32296;DHT22;18781;51.550;5.418;2023-06-10T05:43:54;22.50;53.70
32296;DHT22;18781;51.550;5.418;2023-06-10T05:46:20;22.50;53.60
32296;DHT22;18781;51.550;5.418;2023-06-10T05:48:45;22.60;53.60
32296;DHT22;18781;51.550;5.418;2023-06-10T05:51:11;22.60;53.60
32296;DHT22;18781;51.550;5.418;2023-06-10T05:53:37;22.60;53.60
32296;DHT22;18781;51.550;5.418;2023-06-10T05:56:03;22.70;53.60
32296;DHT22;18781;51.550;5.418;2023-06-10T05:58:29;22.70;53.60
32296;DHT22;18781;51.550;5.418;2023-06-10T06:00:55;22.80;53.70
32296;DHT22;18781;51.550;5.418;2023-06-10T06:03:20;22.80;53.50
32296;DHT22;18781;51.550;5.418;2023-06-10T06:05:46;22.80;53.50
32296;DHT22;18781;51.550;5.418;2023-06-10T06:08:11;22.90;53.50
32296;DHT22;18781;51.550;5.418;2023-06-10T06:10:39;22.90;53.40
32296;DHT22;18781;51.550;5.418;2023-06-10T06:13:04;22.90;53.30
32296;DHT22;18781;51.550;5.418;2023-06-10T06:15:30;23.00;53.60
32296;DHT22;18781;51.550;5.418;2023-06-10T06:17:56;23.10;53.30
32296;DHT22;18781;51.550;5.418;2023-06-10T06:20:22;23.10;53.10
32296;DHT22;18781;51.550;5.418;2023-06-10T06:22:48;23.10;53.20
32296;DHT22;18781;51.550;5.418;2023-06-10T06:25:13;23.20;53.10
32296;DHT22;18781;51.550;5.418;2023-06-10T06:27:39;23.30;53.00
32296;DHT22;18781;51.550;5.418;2023-06-10T06:30:05;23.30;53.00
32296;DHT22;18781;51.550;5.418;2023-06-10T06:32:31;23.30;53.00
32296;DHT22;18781;51.550;5.418;2023-06-10T06:34:56;23.40;53.10
32296;DHT22;18781;51.550;5.418;2023-06-10T06:37:23;23.40;52.90
32296;DHT22;18781;51.550;5.418;2023-06-10T06:39:53;23.50;52.60
32296;DHT22;18781;51.550;5.418;2023-06-10T06:42:20;23.50;52.40
32296;DHT22;18781;51.550;5.418;2023-06-10T06:44:46;23.60;52.60
32296;DHT22;18781;51.550;5.418;2023-06-10T06:47:12;23.60;52.30
32296;DHT22;18781;51.550;5.418;2023-06-10T06:49:38;23.70;52.10
32296;DHT22;18781;51.550;5.418;2023-06-10T06:52:03;23.70;52.10
32296;DHT22;18781;51.550;5.418;2023-06-10T06:54:29;23.80;52.10
32296;DHT22;18781;51.550;5.418;2023-06-10T06:56:55;23.80;52.10
32296;DHT22;18781;51.550;5.418;2023-06-10T06:59:20;23.90;52.00
32296;DHT22;18781;51.550;5.418;2023-06-10T07:01:46;24.00;52.30
32296;DHT22;18781;51.550;5.418;2023-06-10T07:04:14;24.00;52.20
32296;DHT22;18781;51.550;5.418;2023-06-10T07:06:39;24.10;52.30
32296;DHT22;18781;51.550;5.418;2023-06-10T07:09:05;24.20;51.70
32296;DHT22;18781;51.550;5.418;2023-06-10T07:11:31;24.20;51.70
32296;DHT22;18781;51.550;5.418;2023-06-10T07:13:57;24.30;51.60
32296;DHT22;18781;51.550;5.418;2023-06-10T07:16:22;24.40;51.70
32296;DHT22;18781;51.550;5.418;2023-06-10T07:18:48;24.40;51.50
32296;DHT22;18781;51.550;5.418;2023-06-10T07:21:14;24.60;51.30
32296;DHT22;18781;51.550;5.418;2023-06-10T07:23:43;24.60;51.00
32296;DHT22;18781;51.550;5.418;2023-06-10T07:26:08;24.70;50.90
32296;DHT22;18781;51.550;5.418;2023-06-10T07:28:37;24.80;51.00
32296;DHT22;18781;51.550;5.418;2023-06-10T07:31:02;24.80;51.00
32296;DHT22;18781;51.550;5.418;2023-06-10T07:33:28;24.90;51.00
32296;DHT22;18781;51.550;5.418;2023-06-10T07:35:54;25.00;51.10
32296;DHT22;18781;51.550;5.418;2023-06-10T07:38:19;25.10;50.50
32296;DHT22;18781;51.550;5.418;2023-06-10T07:40:45;25.20;50.20
32296;DHT22;18781;51.550;5.418;2023-06-10T07:43:11;25.30;49.60
32296;DHT22;18781;51.550;5.418;2023-06-10T07:45:36;25.40;49.60
32296;DHT22;18781;51.550;5.418;2023-06-10T07:48:04;25.50;49.30
32296;DHT22;18781;51.550;5.418;2023-06-10T07:50:30;25.60;49.20
32296;DHT22;18781;51.550;5.418;2023-06-10T07:52:55;25.70;49.30
32296;DHT22;18781;51.550;5.418;2023-06-10T07:55:21;25.70;48.30
32296;DHT22;18781;51.550;5.418;2023-06-10T07:57:46;25.80;48.00
32296;DHT22;18781;51.550;5.418;2023-06-10T08:00:12;25.90;48.40
32296;DHT22;18781;51.550;5.418;2023-06-10T08:02:38;26.00;48.20
32296;DHT22;18781;51.550;5.418;2023-06-10T08:05:04;26.10;47.90
32296;DHT22;18781;51.550;5.418;2023-06-10T08:07:30;26.20;46.90
32296;DHT22;18781;51.550;5.418;2023-06-10T08:09:57;26.20;46.60
32296;DHT22;18781;51.550;5.418;2023-06-10T08:12:22;26.30;46.40
32296;DHT22;18781;51.550;5.418;2023-06-10T08:14:48;26.30;45.80
32296;DHT22;18781;51.550;5.418;2023-06-10T08:17:13;26.40;45.80
32296;DHT22;18781;51.550;5.418;2023-06-10T08:19:39;26.40;46.80
32296;DHT22;18781;51.550;5.418;2023-06-10T08:22:05;26.50;46.70
32296;DHT22;18781;51.550;5.418;2023-06-10T08:24:30;26.60;46.60
32296;DHT22;18781;51.550;5.418;2023-06-10T08:26:56;26.70;46.50
32296;DHT22;18781;51.550;5.418;2023-06-10T08:29:22;26.80;46.70
32296;DHT22;18781;51.550;5.418;2023-06-10T08:31:48;26.90;46.40
32296;DHT22;18781;51.550;5.418;2023-06-10T08:34:14;27.00;46.00
32296;DHT22;18781;51.550;5.418;2023-06-10T08:36:39;27.10;45.70
32296;DHT22;18781;51.550;5.418;2023-06-10T08:39:05;27.20;45.90
32296;DHT22;18781;51.550;5.418;2023-06-10T08:41:35;27.30;45.40
32296;DHT22;18781;51.550;5.418;2023-06-10T08:44:08;27.40;45.50
32296;DHT22;18781;51.550;5.418;2023-06-10T08:46:36;27.50;45.00
32296;DHT22;18781;51.550;5.418;2023-06-10T08:49:06;27.60;44.70
32296;DHT22;18781;51.550;5.418;2023-06-10T08:51:35;27.70;44.30
32296;DHT22;18781;51.550;5.418;2023-06-10T08:54:05;27.80;43.70
32296;DHT22;18781;51.550;5.418;2023-06-10T08:56:39;27.80;44.50
32296;DHT22;18781;51.550;5.418;2023-06-10T08:59:05;27.90;44.70
32296;DHT22;18781;51.550;5.418;2023-06-10T09:01:31;28.00;43.70
32296;DHT22;18781;51.550;5.418;2023-06-10T09:03:59;28.10;43.90
32296;DHT22;18781;51.550;5.418;2023-06-10T09:06:25;28.20;44.30
32296;DHT22;18781;51.550;5.418;2023-06-10T09:08:51;28.30;41.90
32296;DHT22;18781;51.550;5.418;2023-06-10T09:11:17;28.40;42.70
32296;DHT22;18781;51.550;5.418;2023-06-10T09:13:43;28.50;42.50
32296;DHT22;18781;51.550;5.418;2023-06-10T09:16:09;28.60;42.50
32296;DHT22;18781;51.550;5.418;2023-06-10T09:18:37;28.70;42.40
32296;DHT22;18781;51.550;5.418;2023-06-10T09:21:03;28.70;40.50
32296;DHT22;18781;51.550;5.418;2023-06-10T09:23:29;28.80;40.20
32296;DHT22;18781;51.550;5.418;2023-06-10T09:25:58;28.80;40.30
32296;DHT22;18781;51.550;5.418;2023-06-10T09:28:24;28.90;41.00
32296;DHT22;18781;51.550;5.418;2023-06-10T09:30:50;29.00;41.20
32296;DHT22;18781;51.550;5.418;2023-06-10T09:33:26;29.00;40.70
32296;DHT22;18781;51.550;5.418;2023-06-10T09:35:52;29.10;40.20
32296;DHT22;18781;51.550;5.418;2023-06-10T09:38:21;29.20;39.70
32296;DHT22;18781;51.550;5.418;2023-06-10T09:40:54;29.20;39.20
32296;DHT22;18781;51.550;5.418;2023-06-10T09:43:20;29.40;39.40
32296;DHT22;18781;51.550;5.418;2023-06-10T09:45:52;29.40;38.80
32296;DHT22;18781;51.550;5.418;2023-06-10T09:48:22;29.40;38.30
32296;DHT22;18781;51.550;5.418;2023-06-10T09:50:48;29.40;38.60
32296;DHT22;18781;51.550;5.418;2023-06-10T09:53:14;29.40;39.50
32296;DHT22;18781;51.550;5.418;2023-06-10T09:55:42;29.50;40.30
32296;DHT22;18781;51.550;5.418;2023-06-10T09:58:07;29.60;39.80
32296;DHT22;18781;51.550;5.418;2023-06-10T10:00:34;29.70;40.20
32296;DHT22;18781;51.550;5.418;2023-06-10T10:03:00;29.80;39.10
32296;DHT22;18781;51.550;5.418;2023-06-10T10:05:27;29.80;39.10
32296;DHT22;18781;51.550;5.418;2023-06-10T10:07:53;29.90;39.50
32296;DHT22;18781;51.550;5.418;2023-06-10T10:10:20;29.90;39.60
32296;DHT22;18781;51.550;5.418;2023-06-10T10:12:46;30.00;38.90
32296;DHT22;18781;51.550;5.418;2023-06-10T10:15:12;30.10;39.30
32296;DHT22;18781;51.550;5.418;2023-06-10T10:17:52;30.20;39.10
32296;DHT22;18781;51.550;5.418;2023-06-10T10:20:21;30.20;39.50
32296;DHT22;18781;51.550;5.418;2023-06-10T10:22:49;30.30;40.10
32296;DHT22;18781;51.550;5.418;2023-06-10T10:25:23;30.30;39.70
32296;DHT22;18781;51.550;5.418;2023-06-10T10:28:10;30.50;39.90
32296;DHT22;18781;51.550;5.418;2023-06-10T10:30:49;30.60;39.70
32296;DHT22;18781;51.550;5.418;2023-06-10T10:33:23;30.70;39.50
32296;DHT22;18781;51.550;5.418;2023-06-10T10:35:53;30.80;39.40
32296;DHT22;18781;51.550;5.418;2023-06-10T10:38:19;30.90;39.40
32296;DHT22;18781;51.550;5.418;2023-06-10T10:40:46;31.10;38.30
32296;DHT22;18781;51.550;5.418;2023-06-10T10:43:13;31.10;37.60
32296;DHT22;18781;51.550;5.418;2023-06-10T10:45:39;31.20;37.40
32296;DHT22;18781;51.550;5.418;2023-06-10T10:48:07;31.10;37.80
32296;DHT22;18781;51.550;5.418;2023-06-10T10:50:35;31.20;36.90
32296;DHT22;18781;51.550;5.418;2023-06-10T10:53:02;31.20;36.70
32296;DHT22;18781;51.550;5.418;2023-06-10T10:55:28;31.30;36.40
32296;DHT22;18781;51.550;5.418;2023-06-10T10:58:07;31.30;37.20
32296;DHT22;18781;51.550;5.418;2023-06-10T11:00:43;31.30;36.50
32296;DHT22;18781;51.550;5.418;2023-06-10T11:03:14;31.40;36.90
32296;DHT22;18781;51.550;5.418;2023-06-10T11:05:43;31.40;36.50
32296;DHT22;18781;51.550;5.418;2023-06-10T11:08:13;31.50;36.40
32296;DHT22;18781;51.550;5.418;2023-06-10T11:10:41;31.60;36.70
32296;DHT22;18781;51.550;5.418;2023-06-10T11:13:14;31.70;37.20
32296;DHT22;18781;51.550;5.418;2023-06-10T11:15:44;31.80;36.20
32296;DHT22;18781;51.550;5.418;2023-06-10T11:18:21;31.80;35.60
32296;DHT22;18781;51.550;5.418;2023-06-10T11:26:16;32.00;36.90
32296;DHT22;18781;51.550;5.418;2023-06-10T11:33:54;32.10;34.20
32296;DHT22;18781;51.550;5.418;2023-06-10T11:36:20;32.10;34.50
32296;DHT22;18781;51.550;5.418;2023-06-10T11:38:46;32.10;34.50
32296;DHT22;18781;51.550;5.418;2023-06-10T11:41:12;32.10;33.30
32296;DHT22;18781;51.550;5.418;2023-06-10T11:43:45;32.10;34.20
32296;DHT22;18781;51.550;5.418;2023-06-10T11:46:12;32.10;33.30
32296;DHT22;18781;51.550;5.418;2023-06-10T11:48:37;32.20;33.20
32296;DHT22;18781;51.550;5.418;2023-06-10T11:51:06;32.20;34.30
32296;DHT22;18781;51.550;5.418;2023-06-10T11:53:32;32.20;33.90
32296;DHT22;18781;51.550;5.418;2023-06-10T11:55:58;32.20;33.80
32296;DHT22;18781;51.550;5.418;2023-06-10T11:58:23;32.30;33.60
32296;DHT22;18781;51.550;5.418;2023-06-10T12:00:50;32.30;33.50
32296;DHT22;18781;51.550;5.418;2023-06-10T12:03:19;32.30;33.60
32296;DHT22;18781;51.550;5.418;2023-06-10T12:05:59;32.30;34.00
32296;DHT22;18781;51.550;5.418;2023-06-10T12:08:25;32.40;34.50
32296;DHT22;18781;51.550;5.418;2023-06-10T12:10:51;32.50;35.20
32296;DHT22;18781;51.550;5.418;2023-06-10T12:13:17;32.50;33.70
32296;DHT22;18781;51.550;5.418;2023-06-10T12:15:45;32.60;33.00
32296;DHT22;18781;51.550;5.418;2023-06-10T12:18:22;32.70;33.90
32296;DHT22;18781;51.550;5.418;2023-06-10T12:20:49;32.80;34.20
32296;DHT22;18781;51.550;5.418;2023-06-10T12:23:16;32.90;33.20
32296;DHT22;18781;51.550;5.418;2023-06-10T12:25:52;33.00;32.70
32296;DHT22;18781;51.550;5.418;2023-06-10T12:28:21;33.00;32.80
32296;DHT22;18781;51.550;5.418;2023-06-10T12:30:47;33.10;32.70
32296;DHT22;18781;51.550;5.418;2023-06-10T12:33:19;33.00;32.60
32296;DHT22;18781;51.550;5.418;2023-06-10T12:35:52;33.10;32.00
32296;DHT22;18781;51.550;5.418;2023-06-10T12:38:25;33.10;33.00
32296;DHT22;18781;51.550;5.418;2023-06-10T12:40:54;33.10;32.80
32296;DHT22;18781;51.550;5.418;2023-06-10T12:43:22;33.20;32.70
32296;DHT22;18781;51.550;5.418;2023-06-10T12:45:49;33.30;32.70
32296;DHT22;18781;51.550;5.418;2023-06-10T12:48:24;33.40;32.40
32296;DHT22;18781;51.550;5.418;2023-06-10T12:50:54;33.40;31.70
32296;DHT22;18781;51.550;5.418;2023-06-10T12:53:21;33.50;31.90
32296;DHT22;18781;51.550;5.418;2023-06-10T12:55:47;33.50;32.20
32296;DHT22;18781;51.550;5.418;2023-06-10T12:58:13;33.50;31.40
32296;DHT22;18781;51.550;5.418;2023-06-10T13:00:39;33.60;30.90
32296;DHT22;18781;51.550;5.418;2023-06-10T13:03:05;33.60;31.10
32296;DHT22;18781;51.550;5.418;2023-06-10T13:05:31;33.60;32.00
32296;DHT22;18781;51.550;5.418;2023-06-10T13:07:58;33.60;31.60
32296;DHT22;18781;51.550;5.418;2023-06-10T13:10:24;33.70;31.80
32296;DHT22;18781;51.550;5.418;2023-06-10T13:12:50;33.70;31.10
32296;DHT22;18781;51.550;5.418;2023-06-10T13:15:16;33.70;31.60
32296;DHT22;18781;51.550;5.418;2023-06-10T13:17:43;33.70;30.80
32296;DHT22;18781;51.550;5.418;2023-06-10T13:20:09;33.80;31.20
32296;DHT22;18781;51.550;5.418;2023-06-10T13:22:35;33.80;30.70
32296;DHT22;18781;51.550;5.418;2023-06-10T13:25:05;33.90;30.00
32296;DHT22;18781;51.550;5.418;2023-06-10T13:27:33;33.90;30.70
32296;DHT22;18781;51.550;5.418;2023-06-10T13:29:59;33.90;31.10
32296;DHT22;18781;51.550;5.418;2023-06-10T13:32:24;33.90;31.10
32296;DHT22;18781;51.550;5.418;2023-06-10T13:34:50;34.00;31.30
32296;DHT22;18781;51.550;5.418;2023-06-10T13:37:17;34.10;30.30
32296;DHT22;18781;51.550;5.418;2023-06-10T13:39:43;34.10;30.60
32296;DHT22;18781;51.550;5.418;2023-06-10T13:42:09;34.10;29.50
32296;DHT22;18781;51.550;5.418;2023-06-10T13:44:34;34.10;29.60
32296;DHT22;18781;51.550;5.418;2023-06-10T13:47:02;34.00;29.10
32296;DHT22;18781;51.550;5.418;2023-06-10T13:49:28;34.00;29.00
32296;DHT22;18781;51.550;5.418;2023-06-10T13:51:54;34.00;29.30
32296;DHT22;18781;51.550;5.418;2023-06-10T13:54:19;34.00;30.50
32296;DHT22;18781;51.550;5.418;2023-06-10T13:56:46;34.00;29.70
32296;DHT22;18781;51.550;5.418;2023-06-10T13:59:12;34.10;29.90
32296;DHT22;18781;51.550;5.418;2023-06-10T14:01:38;34.10;30.40
32296;DHT22;18781;51.550;5.418;2023-06-10T14:04:04;34.20;29.20
32296;DHT22;18781;51.550;5.418;2023-06-10T14:06:29;34.20;29.40
32296;DHT22;18781;51.550;5.418;2023-06-10T14:08:56;34.30;29.50
32296;DHT22;18781;51.550;5.418;2023-06-10T14:11:21;34.30;29.90
32296;DHT22;18781;51.550;5.418;2023-06-10T14:13:47;34.40;30.00
32296;DHT22;18781;51.550;5.418;2023-06-10T14:16:13;34.40;29.90
32296;DHT22;18781;51.550;5.418;2023-06-10T14:18:38;34.40;30.00
32296;DHT22;18781;51.550;5.418;2023-06-10T14:21:04;34.40;29.90
32296;DHT22;18781;51.550;5.418;2023-06-10T14:23:29;34.40;30.20
32296;DHT22;18781;51.550;5.418;2023-06-10T14:25:55;34.40;29.40
32296;DHT22;18781;51.550;5.418;2023-06-10T14:28:20;34.30;29.70
32296;DHT22;18781;51.550;5.418;2023-06-10T14:30:46;34.30;29.90
32296;DHT22;18781;51.550;5.418;2023-06-10T14:33:12;34.30;29.90
32296;DHT22;18781;51.550;5.418;2023-06-10T14:35:37;34.40;29.70
32296;DHT22;18781;51.550;5.418;2023-06-10T14:38:03;34.40;29.00
32296;DHT22;18781;51.550;5.418;2023-06-10T14:40:29;34.40;29.00
32296;DHT22;18781;51.550;5.418;2023-06-10T14:42:55;34.30;28.90
32296;DHT22;18781;51.550;5.418;2023-06-10T14:45:21;34.20;29.70
32296;DHT22;18781;51.550;5.418;2023-06-10T14:47:46;34.30;29.60
32296;DHT22;18781;51.550;5.418;2023-06-10T14:50:12;34.30;29.00
32296;DHT22;18781;51.550;5.418;2023-06-10T14:52:38;34.30;29.60
32296;DHT22;18781;51.550;5.418;2023-06-10T14:55:04;34.30;29.70
32296;DHT22;18781;51.550;5.418;2023-06-10T14:57:30;34.30;29.80
32296;DHT22;18781;51.550;5.418;2023-06-10T14:59:55;34.40;29.80
32296;DHT22;18781;51.550;5.418;2023-06-10T15:02:22;34.40;29.00
32296;DHT22;18781;51.550;5.418;2023-06-10T15:04:47;34.40;29.20
32296;DHT22;18781;51.550;5.418;2023-06-10T15:07:13;34.40;29.40
32296;DHT22;18781;51.550;5.418;2023-06-10T15:09:41;34.40;29.20
32296;DHT22;18781;51.550;5.418;2023-06-10T15:12:07;34.40;29.50
32296;DHT22;18781;51.550;5.418;2023-06-10T15:14:33;34.40;29.90
32296;DHT22;18781;51.550;5.418;2023-06-10T15:16:58;34.50;29.40
32296;DHT22;18781;51.550;5.418;2023-06-10T15:19:25;34.50;29.50
32296;DHT22;18781;51.550;5.418;2023-06-10T15:21:51;34.50;29.30
32296;DHT22;18781;51.550;5.418;2023-06-10T15:24:17;34.50;28.90
32296;DHT22;18781;51.550;5.418;2023-06-10T15:26:42;34.40;29.60
32296;DHT22;18781;51.550;5.418;2023-06-10T15:29:08;34.40;29.60
32296;DHT22;18781;51.550;5.418;2023-06-10T15:31:34;34.40;29.60
32296;DHT22;18781;51.550;5.418;2023-06-10T15:34:00;34.40;29.60
32296;DHT22;18781;51.550;5.418;2023-06-10T15:36:26;34.40;29.40
32296;DHT22;18781;51.550;5.418;2023-06-10T15:38:53;34.40;29.40